sensor_id;sensor_type;location;lat;lon;timestamp;pressure;altitude;pressure_sealevel;temperature;humidity
62864;BME280;48954;59.950;11.014;2022-09-12T00:00:32;99795.02;;;12.52;79.20
62864;BME280;48954;59.950;11.014;2022-09-12T00:03:19;99792.89;;;12.52;79.21
62864;BME280;48954;59.950;11.014;2022-09-12T00:05:46;99792.83;;;12.58;79.27
62864;BME280;48954;59.950;11.014;2022-09-12T00:08:12;99790.15;;;12.60;79.19
62864;BME280;48954;59.950;11.014;2022-09-12T00:10:40;99791.45;;;12.62;79.25
62864;BME280;48954;59.950;11.014;2022-09-12T00:13:07;99789.19;;;12.63;79.28
62864;BME280;48954;59.950;11.014;2022-09-12T00:15:37;99790.55;;;12.65;79.41
62864;BME280;48954;59.950;11.014;2022-09-12T00:18:04;99784.56;;;12.65;79.25
62864;BME280;48954;59.950;11.014;2022-09-12T00:20:30;99788.16;;;12.68;79.28
62864;BME280;48954;59.950;11.014;2022-09-12T00:22:56;99783.55;;;12.70;79.38
62864;BME280;48954;59.950;11.014;2022-09-12T00:25:23;99783.33;;;12.71;79.41
62864;BME280;48954;59.950;11.014;2022-09-12T00:27:49;99780.73;;;12.72;79.34
62864;BME280;48954;59.950;11.014;2022-09-12T00:33:07;99772.70;;;12.74;79.42
62864;BME280;48954;59.950;11.014;2022-09-12T00:35:33;99768.20;;;12.74;79.49
62864;BME280;48954;59.950;11.014;2022-09-12T00:37:59;99765.39;;;12.75;79.43
62864;BME280;48954;59.950;11.014;2022-09-12T00:40:26;99765.89;;;12.77;79.59
62864;BME280;48954;59.950;11.014;2022-09-12T00:42:52;99763.30;;;12.77;79.50
62864;BME280;48954;59.950;11.014;2022-09-12T00:45:22;99761.73;;;12.78;79.52
62864;BME280;48954;59.950;11.014;2022-09-12T00:47:48;99761.44;;;12.80;79.69
62864;BME280;48954;59.950;11.014;2022-09-12T00:50:15;99762.90;;;12.82;79.71
62864;BME280;48954;59.950;11.014;2022-09-12T00:52:48;99766.30;;;12.84;79.76
62864;BME280;48954;59.950;11.014;2022-09-12T00:55:17;99763.14;;;12.84;79.60
62864;BME280;48954;59.950;11.014;2022-09-12T00:57:57;99764.53;;;12.88;79.71
62864;BME280;48954;59.950;11.014;2022-09-12T01:00:25;99762.98;;;12.90;79.69
62864;BME280;48954;59.950;11.014;2022-09-12T01:02:56;99758.66;;;12.91;79.66
62864;BME280;48954;59.950;11.014;2022-09-12T01:05:24;99753.95;;;12.92;79.60
62864;BME280;48954;59.950;11.014;2022-09-12T01:07:51;99753.80;;;12.93;79.66
62864;BME280;48954;59.950;11.014;2022-09-12T01:10:18;99753.07;;;12.92;79.63
62864;BME280;48954;59.950;11.014;2022-09-12T01:12:45;99753.64;;;12.93;79.59
62864;BME280;48954;59.950;11.014;2022-09-12T01:15:13;99755.69;;;12.93;79.61
62864;BME280;48954;59.950;11.014;2022-09-12T01:18:02;99754.73;;;12.93;79.70
62864;BME280;48954;59.950;11.014;2022-09-12T01:25:55;99749.52;;;12.92;79.65
62864;BME280;48954;59.950;11.014;2022-09-12T01:33:49;99749.70;;;12.93;79.88
62864;BME280;48954;59.950;11.014;2022-09-12T01:38:51;99742.61;;;12.94;79.84
62864;BME280;48954;59.950;11.014;2022-09-12T01:46:41;99738.33;;;12.97;79.92
62864;BME280;48954;59.950;11.014;2022-09-12T01:51:54;99734.79;;;12.98;79.83
62864;BME280;48954;59.950;11.014;2022-09-12T01:54:36;99735.09;;;12.98;79.90
62864;BME280;48954;59.950;11.014;2022-09-12T01:57:06;99727.13;;;12.98;79.95
62864;BME280;48954;59.950;11.014;2022-09-12T01:59:37;99728.48;;;12.98;79.84
62864;BME280;48954;59.950;11.014;2022-09-12T02:02:07;99725.32;;;12.98;80.00
62864;BME280;48954;59.950;11.014;2022-09-12T02:04:35;99723.82;;;12.98;79.93
62864;BME280;48954;59.950;11.014;2022-09-12T02:07:10;99718.20;;;12.98;79.80
62864;BME280;48954;59.950;11.014;2022-09-12T02:09:41;99714.91;;;12.98;79.80
62864;BME280;48954;59.950;11.014;2022-09-12T02:12:10;99713.48;;;12.98;79.87
62864;BME280;48954;59.950;11.014;2022-09-12T02:14:41;99710.45;;;12.96;79.76
62864;BME280;48954;59.950;11.014;2022-09-12T02:17:15;99711.91;;;12.99;79.88
62864;BME280;48954;59.950;11.014;2022-09-12T02:19:45;99706.46;;;12.99;79.92
62864;BME280;48954;59.950;11.014;2022-09-12T02:22:14;99705.44;;;12.98;79.76
62864;BME280;48954;59.950;11.014;2022-09-12T02:24:41;99700.08;;;12.98;79.73
62864;BME280;48954;59.950;11.014;2022-09-12T02:27:10;99698.09;;;12.97;79.76
62864;BME280;48954;59.950;11.014;2022-09-12T02:29:39;99700.36;;;12.96;79.69
62864;BME280;48954;59.950;11.014;2022-09-12T02:34:50;99691.48;;;12.91;79.85
62864;BME280;48954;59.950;11.014;2022-09-12T02:39:50;99686.09;;;12.90;79.89
62864;BME280;48954;59.950;11.014;2022-09-12T02:42:17;99682.77;;;12.89;79.86
62864;BME280;48954;59.950;11.014;2022-09-12T02:44:43;99684.79;;;12.87;79.86
62864;BME280;48954;59.950;11.014;2022-09-12T02:47:10;99686.44;;;12.85;79.82
62864;BME280;48954;59.950;11.014;2022-09-12T02:49:37;99681.69;;;12.83;79.81
62864;BME280;48954;59.950;11.014;2022-09-12T02:52:04;99678.98;;;12.81;79.86
62864;BME280;48954;59.950;11.014;2022-09-12T02:54:31;99676.45;;;12.81;79.98
62864;BME280;48954;59.950;11.014;2022-09-12T02:56:58;99674.94;;;12.80;79.96
62864;BME280;48954;59.950;11.014;2022-09-12T02:59:24;99683.13;;;12.79;79.90
62864;BME280;48954;59.950;11.014;2022-09-12T03:04:37;99679.48;;;12.78;80.05
62864;BME280;48954;59.950;11.014;2022-09-12T03:19:59;99674.52;;;12.78;80.23
62864;BME280;48954;59.950;11.014;2022-09-12T03:22:36;99674.05;;;12.79;80.36
62864;BME280;48954;59.950;11.014;2022-09-12T03:30:27;99676.84;;;12.80;80.34
62864;BME280;48954;59.950;11.014;2022-09-12T03:32:53;99672.82;;;12.81;80.45
62864;BME280;48954;59.950;11.014;2022-09-12T03:35:21;99669.52;;;12.82;80.49
62864;BME280;48954;59.950;11.014;2022-09-12T03:37:48;99664.95;;;12.82;80.42
62864;BME280;48954;59.950;11.014;2022-09-12T03:43:01;99663.16;;;12.83;80.66
62864;BME280;48954;59.950;11.014;2022-09-12T03:45:27;99662.94;;;12.84;80.70
62864;BME280;48954;59.950;11.014;2022-09-12T03:47:53;99659.46;;;12.84;80.69
62864;BME280;48954;59.950;11.014;2022-09-12T03:50:25;99658.51;;;12.85;80.88
62864;BME280;48954;59.950;11.014;2022-09-12T03:52:51;99662.30;;;12.86;80.84
62864;BME280;48954;59.950;11.014;2022-09-12T03:55:17;99660.90;;;12.87;80.89
62864;BME280;48954;59.950;11.014;2022-09-12T03:57:44;99660.52;;;12.89;80.95
62864;BME280;48954;59.950;11.014;2022-09-12T04:00:10;99662.27;;;12.90;80.93
62864;BME280;48954;59.950;11.014;2022-09-12T04:02:37;99662.14;;;12.92;80.96
62864;BME280;48954;59.950;11.014;2022-09-12T04:05:04;99660.64;;;12.93;80.89
62864;BME280;48954;59.950;11.014;2022-09-12T04:07:30;99660.97;;;12.93;80.87
62864;BME280;48954;59.950;11.014;2022-09-12T04:09:56;99661.13;;;12.94;80.98
62864;BME280;48954;59.950;11.014;2022-09-12T04:12:23;99659.87;;;12.93;80.91
62864;BME280;48954;59.950;11.014;2022-09-12T04:14:49;99655.69;;;12.93;81.03
62864;BME280;48954;59.950;11.014;2022-09-12T04:17:15;99658.05;;;12.92;81.07
62864;BME280;48954;59.950;11.014;2022-09-12T04:19:41;99665.33;;;12.94;81.03
62864;BME280;48954;59.950;11.014;2022-09-12T04:24:57;99655.63;;;12.95;80.90
62864;BME280;48954;59.950;11.014;2022-09-12T04:27:23;99654.65;;;12.91;81.06
62864;BME280;48954;59.950;11.014;2022-09-12T04:29:50;99656.98;;;12.94;81.05
62864;BME280;48954;59.950;11.014;2022-09-12T04:32:21;99661.24;;;12.95;80.98
62864;BME280;48954;59.950;11.014;2022-09-12T04:34:48;99657.01;;;12.98;81.07
62864;BME280;48954;59.950;11.014;2022-09-12T04:37:14;99661.02;;;12.98;81.09
62864;BME280;48954;59.950;11.014;2022-09-12T04:39:41;99651.51;;;12.93;81.19
62864;BME280;48954;59.950;11.014;2022-09-12T04:42:07;99652.91;;;12.92;81.14
62864;BME280;48954;59.950;11.014;2022-09-12T04:44:33;99656.29;;;12.96;81.21
62864;BME280;48954;59.950;11.014;2022-09-12T04:47:00;99651.90;;;12.93;81.14
62864;BME280;48954;59.950;11.014;2022-09-12T04:49:27;99652.86;;;12.93;81.24
62864;BME280;48954;59.950;11.014;2022-09-12T04:51:53;99650.71;;;12.92;81.37
62864;BME280;48954;59.950;11.014;2022-09-12T04:54:20;99652.59;;;12.92;81.35
62864;BME280;48954;59.950;11.014;2022-09-12T04:56:47;99647.75;;;12.88;81.39
62864;BME280;48954;59.950;11.014;2022-09-12T04:59:17;99649.17;;;12.89;81.50
62864;BME280;48954;59.950;11.014;2022-09-12T05:05:01;99646.25;;;12.89;81.61
62864;BME280;48954;59.950;11.014;2022-09-12T05:07:52;99645.69;;;12.88;81.68
62864;BME280;48954;59.950;11.014;2022-09-12T05:10:21;99643.33;;;12.88;81.69
62864;BME280;48954;59.950;11.014;2022-09-12T05:12:48;99645.85;;;12.89;81.75
62864;BME280;48954;59.950;11.014;2022-09-12T05:15:20;99644.20;;;12.88;81.83
62864;BME280;48954;59.950;11.014;2022-09-12T05:17:54;99643.73;;;12.89;81.90
62864;BME280;48954;59.950;11.014;2022-09-12T05:20:22;99638.99;;;12.89;81.95
62864;BME280;48954;59.950;11.014;2022-09-12T05:22:49;99641.99;;;12.89;81.95
62864;BME280;48954;59.950;11.014;2022-09-12T05:25:31;99643.26;;;12.89;81.92
62864;BME280;48954;59.950;11.014;2022-09-12T05:27:58;99639.08;;;12.89;82.00
62864;BME280;48954;59.950;11.014;2022-09-12T05:30:44;99636.73;;;12.91;82.01
62864;BME280;48954;59.950;11.014;2022-09-12T05:33:12;99637.29;;;12.92;82.12
62864;BME280;48954;59.950;11.014;2022-09-12T05:35:39;99631.61;;;12.92;82.06
62864;BME280;48954;59.950;11.014;2022-09-12T05:38:08;99629.60;;;12.95;82.16
62864;BME280;48954;59.950;11.014;2022-09-12T05:40:45;99630.73;;;12.96;82.07
62864;BME280;48954;59.950;11.014;2022-09-12T05:43:11;99626.33;;;12.96;82.10
62864;BME280;48954;59.950;11.014;2022-09-12T05:45:39;99623.00;;;12.96;82.16
62864;BME280;48954;59.950;11.014;2022-09-12T05:48:22;99622.94;;;13.00;82.27
62864;BME280;48954;59.950;11.014;2022-09-12T05:50:49;99620.11;;;13.01;82.25
62864;BME280;48954;59.950;11.014;2022-09-12T05:53:21;99613.58;;;13.02;82.32
62864;BME280;48954;59.950;11.014;2022-09-12T05:55:49;99614.14;;;13.03;82.11
62864;BME280;48954;59.950;11.014;2022-09-12T05:58:17;99612.90;;;13.05;82.29
62864;BME280;48954;59.950;11.014;2022-09-12T06:00:46;99610.87;;;13.06;82.28
62864;BME280;48954;59.950;11.014;2022-09-12T06:05:37;99614.45;;;13.08;82.32
62864;BME280;48954;59.950;11.014;2022-09-12T06:08:04;99616.20;;;13.10;82.30
62864;BME280;48954;59.950;11.014;2022-09-12T06:10:33;99617.21;;;13.11;82.37
62864;BME280;48954;59.950;11.014;2022-09-12T06:13:00;99616.67;;;13.12;82.33
62864;BME280;48954;59.950;11.014;2022-09-12T06:15:26;99617.86;;;13.13;82.27
62864;BME280;48954;59.950;11.014;2022-09-12T06:17:53;99615.29;;;13.14;82.40
62864;BME280;48954;59.950;11.014;2022-09-12T06:20:21;99614.98;;;13.13;82.35
62864;BME280;48954;59.950;11.014;2022-09-12T06:22:47;99612.80;;;13.15;82.30
62864;BME280;48954;59.950;11.014;2022-09-12T06:25:18;99615.96;;;13.16;82.45
62864;BME280;48954;59.950;11.014;2022-09-12T06:27:44;99620.39;;;13.17;82.43
62864;BME280;48954;59.950;11.014;2022-09-12T06:30:12;99616.70;;;13.19;82.57
62864;BME280;48954;59.950;11.014;2022-09-12T06:32:38;99618.54;;;13.20;82.44
62864;BME280;48954;59.950;11.014;2022-09-12T06:35:07;99619.73;;;13.21;82.39
62864;BME280;48954;59.950;11.014;2022-09-12T06:37:34;99610.75;;;13.15;82.37
62864;BME280;48954;59.950;11.014;2022-09-12T06:40:01;99620.11;;;13.20;82.30
62864;BME280;48954;59.950;11.014;2022-09-12T06:42:27;99623.27;;;13.20;82.34
62864;BME280;48954;59.950;11.014;2022-09-12T06:44:54;99620.69;;;13.22;82.35
62864;BME280;48954;59.950;11.014;2022-09-12T06:47:23;99621.09;;;13.23;82.42
62864;BME280;48954;59.950;11.014;2022-09-12T06:49:49;99619.98;;;13.26;82.35
62864;BME280;48954;59.950;11.014;2022-09-12T06:52:17;99614.48;;;13.27;82.49
62864;BME280;48954;59.950;11.014;2022-09-12T06:54:44;99603.33;;;13.25;82.51
62864;BME280;48954;59.950;11.014;2022-09-12T06:57:10;99613.84;;;13.34;82.51
62864;BME280;48954;59.950;11.014;2022-09-12T06:59:37;99606.92;;;13.37;82.37
62864;BME280;48954;59.950;11.014;2022-09-12T07:02:04;99607.43;;;13.42;82.55
62864;BME280;48954;59.950;11.014;2022-09-12T07:04:33;99605.98;;;13.48;82.57
62864;BME280;48954;59.950;11.014;2022-09-12T07:07:00;99602.32;;;13.53;82.42
62864;BME280;48954;59.950;11.014;2022-09-12T07:09:28;99600.31;;;13.59;82.47
62864;BME280;48954;59.950;11.014;2022-09-12T07:11:55;99598.06;;;13.65;82.49
62864;BME280;48954;59.950;11.014;2022-09-12T07:14:22;99598.10;;;13.70;82.40
62864;BME280;48954;59.950;11.014;2022-09-12T07:16:48;99595.23;;;13.74;82.22
62864;BME280;48954;59.950;11.014;2022-09-12T07:19:15;99590.02;;;13.77;82.21
62864;BME280;48954;59.950;11.014;2022-09-12T07:21:41;99589.83;;;13.83;82.15
62864;BME280;48954;59.950;11.014;2022-09-12T07:24:08;99586.44;;;13.84;82.04
62864;BME280;48954;59.950;11.014;2022-09-12T07:26:37;99593.63;;;13.96;82.06
62864;BME280;48954;59.950;11.014;2022-09-12T07:29:04;99588.75;;;14.01;81.91
62864;BME280;48954;59.950;11.014;2022-09-12T07:31:31;99590.14;;;14.09;81.88
62864;BME280;48954;59.950;11.014;2022-09-12T07:33:58;99585.76;;;14.13;81.50
62864;BME280;48954;59.950;11.014;2022-09-12T07:36:25;99589.55;;;14.18;81.45
62864;BME280;48954;59.950;11.014;2022-09-12T07:38:52;99590.05;;;14.21;81.26
62864;BME280;48954;59.950;11.014;2022-09-12T07:41:21;99585.39;;;14.22;81.16
62864;BME280;48954;59.950;11.014;2022-09-12T07:43:52;99588.20;;;14.27;81.04
62864;BME280;48954;59.950;11.014;2022-09-12T07:46:19;99585.42;;;14.31;80.91
62864;BME280;48954;59.950;11.014;2022-09-12T07:48:50;99586.48;;;14.34;80.66
62864;BME280;48954;59.950;11.014;2022-09-12T07:51:17;99584.76;;;14.37;80.45
62864;BME280;48954;59.950;11.014;2022-09-12T07:53:44;99584.80;;;14.43;80.37
62864;BME280;48954;59.950;11.014;2022-09-12T07:56:11;99583.31;;;14.47;80.14
62864;BME280;48954;59.950;11.014;2022-09-12T07:58:38;99584.60;;;14.49;79.97
62864;BME280;48954;59.950;11.014;2022-09-12T08:03:32;99577.65;;;14.55;79.61
62864;BME280;48954;59.950;11.014;2022-09-12T08:06:06;99575.06;;;14.60;79.49
62864;BME280;48954;59.950;11.014;2022-09-12T08:08:35;99569.94;;;14.63;79.15
62864;BME280;48954;59.950;11.014;2022-09-12T08:11:03;99570.57;;;14.63;78.91
62864;BME280;48954;59.950;11.014;2022-09-12T08:13:31;99565.83;;;14.64;78.79
62864;BME280;48954;59.950;11.014;2022-09-12T08:16:01;99566.39;;;14.66;78.66
62864;BME280;48954;59.950;11.014;2022-09-12T08:18:29;99570.73;;;14.69;78.44
62864;BME280;48954;59.950;11.014;2022-09-12T08:20:56;99569.70;;;14.67;78.22
62864;BME280;48954;59.950;11.014;2022-09-12T08:23:23;99572.64;;;14.71;78.29
62864;BME280;48954;59.950;11.014;2022-09-12T08:25:50;99562.61;;;14.74;77.96
62864;BME280;48954;59.950;11.014;2022-09-12T08:28:16;99568.14;;;14.74;77.61
62864;BME280;48954;59.950;11.014;2022-09-12T08:30:43;99565.06;;;14.74;77.50
62864;BME280;48954;59.950;11.014;2022-09-12T08:33:09;99558.66;;;14.75;77.46
62864;BME280;48954;59.950;11.014;2022-09-12T08:35:37;99560.17;;;14.76;77.14
62864;BME280;48954;59.950;11.014;2022-09-12T08:38:03;99557.56;;;14.77;77.18
62864;BME280;48954;59.950;11.014;2022-09-12T08:40:30;99558.04;;;14.80;77.03
62864;BME280;48954;59.950;11.014;2022-09-12T08:45:53;99562.55;;;14.84;76.60
62864;BME280;48954;59.950;11.014;2022-09-12T08:48:23;99559.70;;;14.85;76.12
62864;BME280;48954;59.950;11.014;2022-09-12T08:50:49;99560.97;;;14.86;75.73
62864;BME280;48954;59.950;11.014;2022-09-12T08:53:17;99558.52;;;14.87;75.46
62864;BME280;48954;59.950;11.014;2022-09-12T08:55:51;99559.09;;;14.87;75.27
62864;BME280;48954;59.950;11.014;2022-09-12T08:58:20;99558.29;;;14.87;75.28
62864;BME280;48954;59.950;11.014;2022-09-12T09:06:26;99556.96;;;15.00;74.84
62864;BME280;48954;59.950;11.014;2022-09-12T09:09:11;99559.26;;;15.08;74.28
62864;BME280;48954;59.950;11.014;2022-09-12T09:17:01;99551.05;;;15.43;73.52
62864;BME280;48954;59.950;11.014;2022-09-12T09:19:34;99547.16;;;15.52;73.37
62864;BME280;48954;59.950;11.014;2022-09-12T09:22:13;99539.88;;;15.62;73.23
62864;BME280;48954;59.950;11.014;2022-09-12T09:24:44;99543.30;;;15.69;72.80
62864;BME280;48954;59.950;11.014;2022-09-12T09:27:16;99546.20;;;15.76;72.43
62864;BME280;48954;59.950;11.014;2022-09-12T09:29:49;99545.73;;;15.79;72.09
62864;BME280;48954;59.950;11.014;2022-09-12T09:32:25;99543.98;;;15.78;71.71
62864;BME280;48954;59.950;11.014;2022-09-12T09:34:52;99536.63;;;15.73;71.15
62864;BME280;48954;59.950;11.014;2022-09-12T09:37:19;99540.43;;;15.70;70.72
62864;BME280;48954;59.950;11.014;2022-09-12T09:40:07;99539.09;;;15.65;70.41
62864;BME280;48954;59.950;11.014;2022-09-12T09:42:44;99536.40;;;15.60;70.04
62864;BME280;48954;59.950;11.014;2022-09-12T09:45:18;99536.98;;;15.57;69.71
62864;BME280;48954;59.950;11.014;2022-09-12T09:48:30;99534.26;;;15.54;69.58
62864;BME280;48954;59.950;11.014;2022-09-12T09:50:41;99533.94;;;15.53;69.79
62864;BME280;48954;59.950;11.014;2022-09-12T09:55:49;99536.46;;;15.51;69.51
62864;BME280;48954;59.950;11.014;2022-09-12T09:58:29;99533.77;;;15.49;69.30
62864;BME280;48954;59.950;11.014;2022-09-12T10:00:59;99530.70;;;15.44;69.28
62864;BME280;48954;59.950;11.014;2022-09-12T10:03:30;99530.15;;;15.39;69.15
62864;BME280;48954;59.950;11.014;2022-09-12T10:05:58;99527.20;;;15.37;69.27
62864;BME280;48954;59.950;11.014;2022-09-12T10:08:29;99523.96;;;15.35;69.27
62864;BME280;48954;59.950;11.014;2022-09-12T10:10:57;99523.16;;;15.33;69.39
62864;BME280;48954;59.950;11.014;2022-09-12T10:15:58;99520.73;;;15.30;69.41
62864;BME280;48954;59.950;11.014;2022-09-12T10:18:39;99520.34;;;15.30;69.41
62864;BME280;48954;59.950;11.014;2022-09-12T10:21:14;99516.14;;;15.29;69.39
62864;BME280;48954;59.950;11.014;2022-09-12T10:23:41;99508.55;;;15.29;69.22
62864;BME280;48954;59.950;11.014;2022-09-12T10:26:11;99509.02;;;15.29;69.43
62864;BME280;48954;59.950;11.014;2022-09-12T10:28:39;99504.34;;;15.30;69.29
62864;BME280;48954;59.950;11.014;2022-09-12T10:31:06;99497.61;;;15.29;69.34
62864;BME280;48954;59.950;11.014;2022-09-12T10:33:44;99499.98;;;15.30;69.41
62864;BME280;48954;59.950;11.014;2022-09-12T10:36:11;99496.20;;;15.30;69.39
62864;BME280;48954;59.950;11.014;2022-09-12T10:38:38;99495.72;;;15.28;69.33
62864;BME280;48954;59.950;11.014;2022-09-12T10:41:05;99494.85;;;15.27;69.48
62864;BME280;48954;59.950;11.014;2022-09-12T10:48:36;99489.30;;;15.27;69.28
62864;BME280;48954;59.950;11.014;2022-09-12T10:51:03;99493.19;;;15.26;69.18
62864;BME280;48954;59.950;11.014;2022-09-12T10:53:39;99493.73;;;15.26;69.19
62864;BME280;48954;59.950;11.014;2022-09-12T10:56:13;99498.02;;;15.27;69.33
62864;BME280;48954;59.950;11.014;2022-09-12T11:03:47;99498.31;;;15.32;69.34
62864;BME280;48954;59.950;11.014;2022-09-12T11:06:18;99496.73;;;15.36;69.28
62864;BME280;48954;59.950;11.014;2022-09-12T11:08:58;99497.68;;;15.40;69.22
62864;BME280;48954;59.950;11.014;2022-09-12T11:11:39;99494.52;;;15.42;69.13
62864;BME280;48954;59.950;11.014;2022-09-12T11:24:28;99494.44;;;15.39;68.31
62864;BME280;48954;59.950;11.014;2022-09-12T11:32:12;99502.77;;;15.30;68.18
62864;BME280;48954;59.950;11.014;2022-09-12T11:39:57;99508.70;;;15.23;67.79
62864;BME280;48954;59.950;11.014;2022-09-12T11:42:29;99509.09;;;15.22;67.76
62864;BME280;48954;59.950;11.014;2022-09-12T11:45:00;99504.89;;;15.21;67.69
62864;BME280;48954;59.950;11.014;2022-09-12T11:47:28;99501.17;;;15.22;67.70
62864;BME280;48954;59.950;11.014;2022-09-12T11:49:57;99499.98;;;15.22;67.63
62864;BME280;48954;59.950;11.014;2022-09-12T11:52:28;99496.73;;;15.22;67.75
62864;BME280;48954;59.950;11.014;2022-09-12T11:57:39;99497.30;;;15.28;67.80
62864;BME280;48954;59.950;11.014;2022-09-12T12:05:48;99494.90;;;15.35;67.82
62864;BME280;48954;59.950;11.014;2022-09-12T12:08:18;99491.02;;;15.39;67.93
62864;BME280;48954;59.950;11.014;2022-09-12T12:15:47;99483.12;;;15.44;67.69
62864;BME280;48954;59.950;11.014;2022-09-12T12:20:42;99483.04;;;15.45;67.81
62864;BME280;48954;59.950;11.014;2022-09-12T12:23:24;99485.15;;;15.46;67.77
62864;BME280;48954;59.950;11.014;2022-09-12T12:25:52;99481.50;;;15.47;67.66
62864;BME280;48954;59.950;11.014;2022-09-12T12:31:07;99480.00;;;15.46;67.68
62864;BME280;48954;59.950;11.014;2022-09-12T12:36:08;99478.42;;;15.45;67.68
62864;BME280;48954;59.950;11.014;2022-09-12T12:38:40;99476.61;;;15.44;67.80
62864;BME280;48954;59.950;11.014;2022-09-12T12:44:45;99475.35;;;15.43;68.05
62864;BME280;48954;59.950;11.014;2022-09-12T12:47:11;99474.33;;;15.42;68.21
62864;BME280;48954;59.950;11.014;2022-09-12T12:49:40;99471.40;;;15.41;68.20
62864;BME280;48954;59.950;11.014;2022-09-12T12:52:14;99467.04;;;15.42;68.11
62864;BME280;48954;59.950;11.014;2022-09-12T12:59:44;99461.42;;;15.43;68.31
62864;BME280;48954;59.950;11.014;2022-09-12T13:02:28;99461.02;;;15.43;68.38
62864;BME280;48954;59.950;11.014;2022-09-12T13:04:55;99459.28;;;15.43;68.50
62864;BME280;48954;59.950;11.014;2022-09-12T13:07:30;99450.96;;;15.40;68.56
62864;BME280;48954;59.950;11.014;2022-09-12T13:09:58;99447.41;;;15.34;68.77
62864;BME280;48954;59.950;11.014;2022-09-12T13:12:29;99441.73;;;15.30;68.79
62864;BME280;48954;59.950;11.014;2022-09-12T13:14:58;99437.45;;;15.24;68.98
62864;BME280;48954;59.950;11.014;2022-09-12T13:17:29;99431.92;;;15.19;69.12
62864;BME280;48954;59.950;11.014;2022-09-12T13:22:40;99423.00;;;15.18;69.44
62864;BME280;48954;59.950;11.014;2022-09-12T13:27:56;99418.30;;;15.21;69.51
62864;BME280;48954;59.950;11.014;2022-09-12T13:39:39;99393.67;;;15.25;69.61
62864;BME280;48954;59.950;11.014;2022-09-12T13:44:52;99388.93;;;15.23;69.96
62864;BME280;48954;59.950;11.014;2022-09-12T13:47:35;99383.08;;;15.20;70.10
62864;BME280;48954;59.950;11.014;2022-09-12T13:50:05;99382.92;;;15.20;70.22
62864;BME280;48954;59.950;11.014;2022-09-12T13:52:38;99378.83;;;15.17;70.33
62864;BME280;48954;59.950;11.014;2022-09-12T13:55:24;99374.00;;;15.15;70.31
62864;BME280;48954;59.950;11.014;2022-09-12T13:58:15;99364.82;;;15.11;70.49
62864;BME280;48954;59.950;11.014;2022-09-12T14:01:11;99363.32;;;15.09;70.68
62864;BME280;48954;59.950;11.014;2022-09-12T14:03:55;99358.25;;;15.07;70.77
62864;BME280;48954;59.950;11.014;2022-09-12T14:06:23;99353.10;;;15.07;70.85
62864;BME280;48954;59.950;11.014;2022-09-12T14:08:50;99352.00;;;15.08;70.99
62864;BME280;48954;59.950;11.014;2022-09-12T14:11:26;99348.27;;;15.07;71.12
62864;BME280;48954;59.950;11.014;2022-09-12T14:13:55;99341.40;;;15.07;71.20
62864;BME280;48954;59.950;11.014;2022-09-12T14:16:29;99336.50;;;15.05;71.32
62864;BME280;48954;59.950;11.014;2022-09-12T14:19:01;99337.86;;;15.04;71.45
62864;BME280;48954;59.950;11.014;2022-09-12T14:27:12;99330.43;;;14.95;71.97
62864;BME280;48954;59.950;11.014;2022-09-12T14:29:47;99328.13;;;14.93;72.21
62864;BME280;48954;59.950;11.014;2022-09-12T14:32:31;99320.80;;;14.88;72.26
62864;BME280;48954;59.950;11.014;2022-09-12T14:37:40;99324.13;;;14.85;72.58
62864;BME280;48954;59.950;11.014;2022-09-12T14:40:24;99321.05;;;14.81;72.49
62864;BME280;48954;59.950;11.014;2022-09-12T14:42:53;99314.34;;;14.75;72.62
62864;BME280;48954;59.950;11.014;2022-09-12T14:45:40;99309.50;;;14.70;72.71
62864;BME280;48954;59.950;11.014;2022-09-12T14:48:17;99309.69;;;14.65;72.72
62864;BME280;48954;59.950;11.014;2022-09-12T14:50:49;99301.23;;;14.60;72.86
62864;BME280;48954;59.950;11.014;2022-09-12T14:55:50;99295.55;;;14.48;73.12
62864;BME280;48954;59.950;11.014;2022-09-12T15:06:23;99293.47;;;14.35;73.91
62864;BME280;48954;59.950;11.014;2022-09-12T15:09:02;99291.64;;;14.31;73.92
62864;BME280;48954;59.950;11.014;2022-09-12T15:11:30;99287.53;;;14.27;74.24
62864;BME280;48954;59.950;11.014;2022-09-12T15:14:14;99278.53;;;14.20;74.41
62864;BME280;48954;59.950;11.014;2022-09-12T15:16:41;99283.35;;;14.24;74.46
62864;BME280;48954;59.950;11.014;2022-09-12T15:19:32;99276.88;;;14.21;74.55
62864;BME280;48954;59.950;11.014;2022-09-12T15:22:02;99274.73;;;14.19;74.59
62864;BME280;48954;59.950;11.014;2022-09-12T15:24:29;99265.39;;;14.17;74.73
62864;BME280;48954;59.950;11.014;2022-09-12T15:26:56;99265.18;;;14.14;74.74
62864;BME280;48954;59.950;11.014;2022-09-12T15:29:39;99257.74;;;14.10;74.77
62864;BME280;48954;59.950;11.014;2022-09-12T15:32:22;99256.17;;;14.09;74.99
62864;BME280;48954;59.950;11.014;2022-09-12T15:35:21;99254.02;;;14.03;74.94
62864;BME280;48954;59.950;11.014;2022-09-12T15:37:52;99247.64;;;13.99;75.11
62864;BME280;48954;59.950;11.014;2022-09-12T15:40:34;99242.34;;;13.97;75.20
62864;BME280;48954;59.950;11.014;2022-09-12T15:43:03;99234.43;;;13.93;75.23
62864;BME280;48954;59.950;11.014;2022-09-12T15:45:33;99230.01;;;13.94;75.30
62864;BME280;48954;59.950;11.014;2022-09-12T15:48:11;99226.22;;;13.89;75.28
62864;BME280;48954;59.950;11.014;2022-09-12T15:50:49;99229.05;;;13.92;75.39
62864;BME280;48954;59.950;11.014;2022-09-12T15:53:31;99226.77;;;13.91;75.33
62864;BME280;48954;59.950;11.014;2022-09-12T15:56:00;99226.44;;;13.89;75.50
62864;BME280;48954;59.950;11.014;2022-09-12T15:58:36;99226.79;;;13.89;75.63
62864;BME280;48954;59.950;11.014;2022-09-12T16:01:11;99222.04;;;13.87;75.72
62864;BME280;48954;59.950;11.014;2022-09-12T16:03:57;99218.17;;;13.85;75.69
62864;BME280;48954;59.950;11.014;2022-09-12T16:06:41;99207.66;;;13.82;75.92